createdAt,value
2018-04-17T00:00:09.199Z,6.00
2018-04-17T00:02:35.701Z,4.50
2018-04-17T00:05:02.173Z,5.50
2018-04-17T00:07:28.645Z,5.00
2018-04-17T00:09:55.137Z,5.13
2018-04-17T00:12:21.571Z,4.93
2018-04-17T00:14:48.047Z,5.27
2018-04-17T00:17:14.541Z,3.90
2018-04-17T00:19:40.997Z,4.37
2018-04-17T00:22:07.479Z,5.13
2018-04-17T00:24:34.739Z,5.00
2018-04-17T00:27:01.154Z,4.90
2018-04-17T00:29:28.366Z,4.17
2018-04-17T00:31:54.782Z,4.67
2018-04-17T00:34:21.237Z,5.27
2018-04-17T00:36:47.700Z,5.07
2018-04-17T00:39:14.886Z,5.90
2018-04-17T00:41:41.370Z,5.37
2018-04-17T00:44:07.804Z,4.97
2018-04-17T00:46:34.295Z,4.43
2018-04-17T00:49:00.721Z,4.43
2018-04-17T00:51:27.220Z,5.20
2018-04-17T00:53:58.661Z,4.80
2018-04-17T00:56:25.131Z,5.33
2018-04-17T00:58:52.354Z,5.00
2018-04-17T01:01:18.934Z,5.00
2018-04-17T01:03:45.462Z,4.63
2018-04-17T01:06:11.909Z,4.90
2018-04-17T01:08:38.378Z,5.17
2018-04-17T01:11:04.831Z,5.07
2018-04-17T01:13:31.325Z,5.03
2018-04-17T01:15:57.769Z,5.57
2018-04-17T01:18:24.368Z,5.47
2018-04-17T01:20:50.823Z,5.10
2018-04-17T01:23:17.254Z,4.70
2018-04-17T01:25:43.716Z,5.40
2018-04-17T01:28:10.220Z,6.37
2018-04-17T01:30:36.698Z,5.53
2018-04-17T01:33:03.272Z,4.93
2018-04-17T01:35:29.742Z,6.37
2018-04-17T01:37:56.275Z,4.90
2018-04-17T01:40:22.759Z,4.50
2018-04-17T01:42:49.201Z,5.37
2018-04-17T01:45:16.389Z,5.40
2018-04-17T01:47:42.856Z,5.57
2018-04-17T01:50:10.087Z,5.90
2018-04-17T01:52:36.550Z,5.43
2018-04-17T01:55:03.010Z,5.00
2018-04-17T01:57:30.210Z,6.30
2018-04-17T01:59:56.682Z,6.50
2018-04-17T02:02:23.896Z,5.43
2018-04-17T02:04:50.409Z,5.73
2018-04-17T02:07:16.892Z,5.93
2018-04-17T02:09:43.343Z,5.80
2018-04-17T02:12:10.550Z,5.50
2018-04-17T02:14:37.097Z,6.00
2018-04-17T02:17:03.574Z,6.50
2018-04-17T02:19:30.972Z,5.40
2018-04-17T02:21:57.438Z,5.77
2018-04-17T02:24:24.617Z,5.73
2018-04-17T02:26:51.122Z,4.70
2018-04-17T02:29:17.594Z,6.47
2018-04-17T02:31:44.030Z,5.23
2018-04-17T02:34:10.537Z,5.40
2018-04-17T02:36:38.375Z,5.93
2018-04-17T02:39:04.914Z,5.40
2018-04-17T02:41:31.355Z,5.70
2018-04-17T02:43:57.812Z,6.60
2018-04-17T02:46:25.057Z,6.40
2018-04-17T02:48:51.547Z,5.97
2018-04-17T02:51:18.059Z,5.73
2018-04-17T02:53:44.534Z,5.43
2018-04-17T02:56:10.986Z,5.80
2018-04-17T02:58:38.444Z,6.17
2018-04-17T03:01:04.988Z,6.33
2018-04-17T03:03:31.437Z,6.03
2018-04-17T03:05:58.637Z,6.03
2018-04-17T03:08:25.153Z,5.40
2018-04-17T03:10:51.640Z,6.87
2018-04-17T03:13:18.075Z,7.17
2018-04-17T03:15:46.015Z,7.03
2018-04-17T03:18:12.479Z,7.10
2018-04-17T03:20:38.942Z,8.97
2018-04-17T03:23:05.473Z,9.90
2018-04-17T03:25:31.915Z,10.27
2018-04-17T03:27:58.371Z,12.63
2018-04-17T03:30:24.812Z,12.33
2018-04-17T03:32:51.347Z,12.53
2018-04-17T03:35:17.803Z,14.67
2018-04-17T03:37:44.322Z,14.07
2018-04-17T03:40:10.825Z,13.87
2018-04-17T03:42:37.303Z,14.07
2018-04-17T03:45:03.774Z,13.10
2018-04-17T03:47:30.961Z,13.23
2018-04-17T03:49:57.398Z,12.63
2018-04-17T03:52:23.841Z,14.17
2018-04-17T03:54:50.287Z,14.33
2018-04-17T03:57:16.739Z,13.73
2018-04-17T03:59:43.209Z,16.10
2018-04-17T04:02:09.673Z,12.90
2018-04-17T04:04:36.183Z,15.07
2018-04-17T04:07:02.665Z,14.70
2018-04-17T04:09:29.156Z,13.37
2018-04-17T04:11:55.610Z,13.50
2018-04-17T04:14:22.071Z,13.17
2018-04-17T04:17:09.452Z,13.03
2018-04-17T04:19:47.995Z,13.60
2018-04-17T04:22:26.607Z,14.67
2018-04-17T04:25:03.122Z,11.13
2018-04-17T04:27:29.713Z,11.70
2018-04-17T04:29:56.917Z,13.60
2018-04-17T04:32:24.115Z,14.40
2018-04-17T04:34:50.610Z,13.13
2018-04-17T04:37:17.791Z,11.90
2018-04-17T04:39:44.212Z,13.63
2018-04-17T04:42:10.655Z,11.40
2018-04-17T04:44:37.091Z,14.87
2018-04-17T04:47:03.532Z,13.43
2018-04-17T04:49:30.753Z,12.57
2018-04-17T04:51:57.191Z,13.77
2018-04-17T04:54:23.616Z,13.17
2018-04-17T04:56:50.799Z,12.57
2018-04-17T04:59:17.237Z,13.33
2018-04-17T05:01:43.687Z,13.93
2018-04-17T05:04:10.108Z,14.60
2018-04-17T05:06:36.525Z,12.50
2018-04-17T05:09:03.046Z,11.70
2018-04-17T05:11:29.470Z,13.13
2018-04-17T05:13:56.684Z,14.57
2018-04-17T05:16:23.140Z,11.20
2018-04-17T05:18:49.562Z,12.57
2018-04-17T05:21:16.004Z,12.40
2018-04-17T05:23:42.467Z,12.17
2018-04-17T05:26:08.897Z,12.23
2018-04-17T05:28:35.324Z,14.00
2018-04-17T05:31:01.777Z,14.90
2018-04-17T05:33:28.199Z,15.40
2018-04-17T05:35:54.610Z,14.80
2018-04-17T05:38:21.018Z,15.70
2018-04-17T05:40:47.439Z,14.00
2018-04-17T05:43:13.859Z,15.33
2018-04-17T05:45:40.279Z,15.17
2018-04-17T05:48:07.467Z,15.80
2018-04-17T05:50:33.896Z,14.80
2018-04-17T05:53:00.365Z,17.70
2018-04-17T05:56:30.825Z,15.50
2018-04-17T05:58:58.031Z,16.57
2018-04-17T06:01:24.493Z,14.93
2018-04-17T06:03:50.909Z,16.50
2018-04-17T06:06:17.335Z,15.40
2018-04-17T06:08:43.753Z,16.80
2018-04-17T06:11:10.172Z,16.33
2018-04-17T06:13:36.593Z,16.60
2018-04-17T06:16:02.993Z,15.13
2018-04-17T06:18:29.405Z,16.23
2018-04-17T06:20:55.863Z,16.03
2018-04-17T06:23:22.336Z,14.93
2018-04-17T06:25:48.755Z,15.40
2018-04-17T06:28:15.169Z,15.60
2018-04-17T06:30:41.580Z,14.27
2018-04-17T06:33:07.984Z,14.07
2018-04-17T06:35:34.459Z,14.87
2018-04-17T06:38:00.879Z,13.37
2018-04-17T06:40:27.307Z,13.83
2018-04-17T06:42:53.982Z,13.43
2018-04-17T06:45:20.449Z,12.27
2018-04-17T06:47:46.900Z,12.33
2018-04-17T06:50:20.383Z,11.57
2018-04-17T06:52:46.844Z,11.77
2018-04-17T06:55:13.281Z,11.30
2018-04-17T06:57:39.696Z,11.97
2018-04-17T07:00:06.164Z,10.73
2018-04-17T07:02:32.629Z,10.17
2018-04-17T07:04:59.817Z,9.87
2018-04-17T07:07:26.240Z,10.10
2018-04-17T07:09:52.663Z,9.33
2018-04-17T07:12:19.103Z,10.33
2018-04-17T07:14:45.539Z,9.77
2018-04-17T07:17:11.957Z,10.17
2018-04-17T07:19:38.374Z,9.70
2018-04-17T07:22:04.821Z,9.90
2018-04-17T07:24:31.219Z,9.67
2018-04-17T07:26:57.647Z,9.10
2018-04-17T07:29:24.069Z,8.47
2018-04-17T07:31:50.534Z,8.77
2018-04-17T07:34:16.981Z,8.37
2018-04-17T07:36:43.409Z,8.60
2018-04-17T07:39:10.563Z,7.20
2018-04-17T07:41:37.703Z,7.80
2018-04-17T07:44:04.899Z,7.77
2018-04-17T07:46:31.355Z,8.13
2018-04-17T07:49:03.794Z,7.43
2018-04-17T07:51:30.235Z,7.87
2018-04-17T07:53:56.692Z,7.10
2018-04-17T07:56:23.110Z,6.37
2018-04-17T07:58:49.532Z,7.10
2018-04-17T08:01:15.965Z,6.47
2018-04-17T08:03:42.389Z,7.00
2018-04-17T08:06:08.768Z,6.77
2018-04-17T08:08:35.117Z,6.83
2018-04-17T08:11:01.506Z,6.40
2018-04-17T08:13:27.881Z,6.43
2018-04-17T08:15:54.981Z,5.90
2018-04-17T08:18:21.349Z,6.20
2018-04-17T08:20:47.721Z,6.30
2018-04-17T08:23:14.059Z,5.40
2018-04-17T08:25:40.424Z,6.00
2018-04-17T08:28:06.775Z,5.60
2018-04-17T08:30:33.118Z,6.53
2018-04-17T08:32:59.631Z,5.77
2018-04-17T08:35:25.986Z,5.17
2018-04-17T08:37:52.429Z,5.10
2018-04-17T08:40:18.778Z,5.20
2018-04-17T08:42:45.209Z,4.97
2018-04-17T08:45:14.472Z,4.80
2018-04-17T08:47:40.836Z,4.90
2018-04-17T08:50:07.215Z,4.30
2018-04-17T08:52:33.570Z,4.43
2018-04-17T08:54:59.908Z,3.37
2018-04-17T08:57:26.271Z,3.70
2018-04-17T08:59:53.375Z,3.67
2018-04-17T09:02:19.743Z,3.57
2018-04-17T09:04:46.839Z,3.77
2018-04-17T09:07:13.172Z,4.30
2018-04-17T09:09:40.519Z,3.70
2018-04-17T09:12:06.869Z,3.93
2018-04-17T09:14:33.226Z,3.60
2018-04-17T09:16:59.581Z,4.10
2018-04-17T09:19:25.924Z,4.20
2018-04-17T09:21:52.283Z,3.20
2018-04-17T09:24:18.676Z,3.30
2018-04-17T09:26:45.789Z,3.53
2018-04-17T09:29:12.137Z,3.57
2018-04-17T09:31:39.235Z,3.70
2018-04-17T09:34:05.791Z,3.20
2018-04-17T09:36:32.135Z,3.63
2018-04-17T09:38:58.477Z,3.10
2018-04-17T09:41:24.833Z,2.83
2018-04-17T09:43:51.203Z,3.57
2018-04-17T09:46:17.556Z,3.20
2018-04-17T09:48:43.949Z,3.00
2018-04-17T09:51:10.329Z,3.40
2018-04-17T09:53:36.693Z,3.40
2018-04-17T09:56:03.828Z,3.47
2018-04-17T09:58:30.181Z,3.53
2018-04-17T10:00:58.095Z,3.10
2018-04-17T10:03:24.451Z,3.10
2018-04-17T10:05:50.823Z,3.30
2018-04-17T10:08:17.183Z,3.90
2018-04-17T10:10:43.531Z,2.90
2018-04-17T10:13:16.930Z,3.03
2018-04-17T10:15:43.275Z,2.80
2018-04-17T10:18:10.359Z,3.10
2018-04-17T10:20:36.712Z,3.10
2018-04-17T10:23:03.052Z,3.57
2018-04-17T10:25:29.409Z,3.00
2018-04-17T10:27:55.747Z,3.37
2018-04-17T10:30:22.146Z,3.70
2018-04-17T10:32:48.496Z,3.30
2018-04-17T10:35:14.867Z,3.07
2018-04-17T10:37:41.221Z,3.10
2018-04-17T10:40:07.583Z,3.00
2018-04-17T10:42:33.943Z,3.07
2018-04-17T10:45:00.286Z,3.40
2018-04-17T10:47:26.627Z,3.33
2018-04-17T10:49:53.707Z,3.70
2018-04-17T10:52:20.056Z,3.43
2018-04-17T10:54:46.435Z,3.73
2018-04-17T10:57:27.635Z,3.47
2018-04-17T10:59:53.995Z,3.30
2018-04-17T11:02:20.358Z,3.43
2018-04-17T11:04:53.754Z,3.37
2018-04-17T11:07:20.846Z,2.90
2018-04-17T11:09:47.200Z,2.90
2018-04-17T11:12:13.540Z,3.00
2018-04-17T11:14:39.915Z,3.00
2018-04-17T11:17:07.035Z,2.93
2018-04-17T11:19:33.455Z,3.27
2018-04-17T11:21:59.835Z,2.83
2018-04-17T11:24:26.923Z,2.77
2018-04-17T11:26:53.298Z,3.70
2018-04-17T11:29:19.658Z,2.90
2018-04-17T11:31:46.740Z,3.07
2018-04-17T11:34:13.142Z,3.10
2018-04-17T11:36:39.522Z,3.17
2018-04-17T11:39:06.691Z,3.83
2018-04-17T11:41:33.054Z,3.33
2018-04-17T11:43:59.406Z,3.37
2018-04-17T11:46:25.767Z,3.20
2018-04-17T11:48:52.127Z,3.50
2018-04-17T11:51:18.500Z,3.10
2018-04-17T11:53:44.879Z,3.27
2018-04-17T11:56:11.249Z,3.03
2018-04-17T11:58:38.340Z,3.10
2018-04-17T12:01:04.732Z,3.07
2018-04-17T12:03:31.154Z,2.83
2018-04-17T12:05:57.608Z,3.00
2018-04-17T12:08:24.056Z,3.27
2018-04-17T12:10:50.476Z,3.03
2018-04-17T12:13:16.916Z,3.17
2018-04-17T12:15:43.295Z,3.20
2018-04-17T12:18:09.692Z,3.27
2018-04-17T12:20:36.047Z,3.07
2018-04-17T12:23:02.428Z,3.00
2018-04-17T12:25:28.804Z,2.50
2018-04-17T12:27:55.255Z,3.17
2018-04-17T12:30:21.627Z,3.40
2018-04-17T12:32:48.020Z,2.90
2018-04-17T12:35:14.600Z,3.00
2018-04-17T12:37:40.968Z,3.30
2018-04-17T12:40:07.393Z,2.67
2018-04-17T12:42:33.776Z,3.47
2018-04-17T12:45:00.166Z,3.70
2018-04-17T12:47:26.574Z,3.23
2018-04-17T12:49:52.979Z,3.27
2018-04-17T12:52:19.359Z,3.03
2018-04-17T12:54:45.739Z,3.23
2018-04-17T12:57:12.882Z,2.90
2018-04-17T12:59:39.278Z,3.33
2018-04-17T13:02:05.686Z,2.77
2018-04-17T13:04:32.066Z,3.33
2018-04-17T13:06:58.436Z,3.30
2018-04-17T13:09:24.783Z,3.20
2018-04-17T13:11:51.140Z,3.37
2018-04-17T13:14:17.505Z,3.10
2018-04-17T13:16:43.867Z,3.37
2018-04-17T13:19:10.947Z,3.10
2018-04-17T13:21:37.304Z,2.93
2018-04-17T13:24:03.704Z,2.83
2018-04-17T13:26:30.127Z,2.60
2018-04-17T13:28:56.485Z,2.70
2018-04-17T13:31:22.840Z,2.80
2018-04-17T13:33:49.949Z,2.97
2018-04-17T13:36:16.296Z,2.97
2018-04-17T13:38:42.652Z,2.90
2018-04-17T13:41:09.001Z,2.20
2018-04-17T13:43:36.141Z,2.40
2018-04-17T13:46:02.538Z,2.70
2018-04-17T13:48:30.221Z,2.23
2018-04-17T13:50:56.595Z,2.60
2018-04-17T13:53:23.693Z,2.40
2018-04-17T13:55:50.064Z,2.57
2018-04-17T13:58:17.180Z,2.73
2018-04-17T14:00:43.517Z,2.60
2018-04-17T14:03:09.854Z,3.17
2018-04-17T14:05:36.208Z,2.60
2018-04-17T14:08:03.300Z,2.33
2018-04-17T14:10:29.669Z,2.43
2018-04-17T14:12:56.022Z,2.60
2018-04-17T14:15:23.137Z,2.63
2018-04-17T14:17:49.495Z,3.00
2018-04-17T14:20:16.599Z,2.30
2018-04-17T14:22:42.952Z,2.20
2018-04-17T14:25:09.315Z,2.30
2018-04-17T14:27:36.410Z,2.50
2018-04-17T14:30:02.825Z,2.53
2018-04-17T14:32:29.204Z,2.53
2018-04-17T14:34:55.577Z,2.47
2018-04-17T14:37:21.940Z,2.10
2018-04-17T14:39:48.321Z,2.33
2018-04-17T14:42:15.448Z,2.43
2018-04-17T14:44:41.804Z,2.50
2018-04-17T14:47:08.912Z,2.40
2018-04-17T14:49:35.262Z,2.80
2018-04-17T14:52:01.596Z,2.60
2018-04-17T14:54:28.030Z,2.50
2018-04-17T14:56:54.364Z,2.40
2018-04-17T14:59:20.711Z,2.43
2018-04-17T15:01:47.074Z,2.60
2018-04-17T15:04:13.427Z,2.50
2018-04-17T15:06:39.778Z,2.67
2018-04-17T15:09:06.198Z,2.53
2018-04-17T15:11:32.546Z,2.17
2018-04-17T15:13:58.905Z,2.40
2018-04-17T15:16:25.255Z,2.43
2018-04-17T15:18:51.614Z,2.20
2018-04-17T15:21:17.960Z,2.00
2018-04-17T15:23:44.328Z,2.30
2018-04-17T15:26:11.469Z,2.17
2018-04-17T15:28:37.920Z,2.80
2018-04-17T15:31:04.294Z,2.10
2018-04-17T15:33:30.642Z,2.10
2018-04-17T15:35:57.007Z,2.20
2018-04-17T15:38:23.367Z,2.20
2018-04-17T15:40:49.722Z,2.50
2018-04-17T15:43:16.107Z,2.33
2018-04-17T15:45:42.458Z,2.30
2018-04-17T15:48:08.816Z,2.73
2018-04-17T15:50:35.172Z,2.63
2018-04-17T15:53:01.519Z,1.87
2018-04-17T15:55:28.659Z,2.20
2018-04-17T15:57:56.134Z,2.20
2018-04-17T16:00:22.494Z,2.30
2018-04-17T16:02:48.846Z,2.30
2018-04-17T16:05:15.204Z,2.20
2018-04-17T16:07:42.747Z,2.37
2018-04-17T16:10:09.170Z,2.77
2018-04-17T16:12:35.505Z,2.50
2018-04-17T16:15:01.851Z,2.30
2018-04-17T16:17:28.221Z,2.43
2018-04-17T16:19:56.144Z,2.50
2018-04-17T16:22:22.535Z,2.43
2018-04-17T16:24:48.901Z,2.53
2018-04-17T16:27:15.269Z,2.50
2018-04-17T16:29:41.669Z,2.53
2018-04-17T16:32:08.047Z,2.77
2018-04-17T16:34:34.406Z,3.00
2018-04-17T16:37:00.815Z,3.10
2018-04-17T16:39:27.933Z,3.00
2018-04-17T16:41:54.307Z,2.40
2018-04-17T16:44:21.443Z,3.00
2018-04-17T16:46:47.795Z,2.83
2018-04-17T16:49:14.909Z,2.80
2018-04-17T16:51:41.250Z,2.63
2018-04-17T16:54:07.583Z,2.53
2018-04-17T16:56:33.986Z,2.50
2018-04-17T16:59:00.360Z,2.97
2018-04-17T17:01:27.473Z,2.93
2018-04-17T17:03:53.855Z,2.77
2018-04-17T17:06:20.952Z,2.77
2018-04-17T17:08:47.322Z,3.30
2018-04-17T17:11:14.443Z,3.13
2018-04-17T17:13:40.793Z,4.40
2018-04-17T17:16:07.164Z,3.27
2018-04-17T17:18:33.511Z,3.13
2018-04-17T17:20:59.874Z,4.33
2018-04-17T17:23:26.240Z,4.20
2018-04-17T17:25:52.589Z,4.43
2018-04-17T17:28:18.942Z,3.50
2018-04-17T17:30:45.310Z,3.33
2018-04-17T17:33:11.717Z,3.37
2018-04-17T17:35:38.111Z,2.73
2018-04-17T17:38:04.460Z,2.43
2018-04-17T17:40:30.841Z,2.50
2018-04-17T17:42:57.212Z,2.50
2018-04-17T17:45:23.581Z,3.27
2018-04-17T17:47:49.977Z,2.83
2018-04-17T17:50:16.372Z,2.50
2018-04-17T17:52:42.798Z,3.10
2018-04-17T17:55:09.156Z,2.60
2018-04-17T17:57:36.283Z,2.77
2018-04-17T18:00:02.685Z,2.53
2018-04-17T18:02:29.026Z,2.70
2018-04-17T18:04:55.424Z,2.37
2018-04-17T18:07:22.523Z,2.70
2018-04-17T18:09:48.888Z,2.67
2018-04-17T18:12:15.264Z,2.37
2018-04-17T18:14:41.620Z,2.60
2018-04-17T18:17:07.986Z,2.37
2018-04-17T18:19:34.378Z,2.80
2018-04-17T18:22:00.735Z,2.67
2018-04-17T18:24:27.827Z,2.27
2018-04-17T18:26:54.206Z,2.53
2018-04-17T18:29:20.623Z,2.50
2018-04-17T18:31:47.008Z,2.93
2018-04-17T18:34:13.397Z,2.83
2018-04-17T18:36:39.842Z,2.57
2018-04-17T18:39:06.314Z,2.70
2018-04-17T18:41:32.761Z,2.80
2018-04-17T18:43:59.186Z,2.70
2018-04-17T18:46:25.644Z,2.63
2018-04-17T18:48:52.170Z,2.90
2018-04-17T18:51:18.593Z,2.83
2018-04-17T18:53:44.989Z,2.90
2018-04-17T18:56:12.203Z,2.97
2018-04-17T18:58:38.629Z,2.53
2018-04-17T19:01:05.146Z,2.33
2018-04-17T19:03:31.627Z,2.90
2018-04-17T19:05:58.058Z,2.67
2018-04-17T19:08:24.501Z,2.40
2018-04-17T19:10:51.735Z,4.13
2018-04-17T19:13:18.951Z,3.73
2018-04-17T19:15:45.448Z,3.60
2018-04-17T19:18:11.944Z,3.40
2018-04-17T19:20:38.368Z,3.50
2018-04-17T19:23:04.786Z,3.20
2018-04-17T19:25:31.320Z,2.73
2018-04-17T19:27:57.703Z,2.80
2018-04-17T19:30:24.118Z,2.47
2018-04-17T19:32:50.540Z,2.60
2018-04-17T19:35:16.941Z,2.80
2018-04-17T19:37:44.095Z,2.50
2018-04-17T19:40:10.487Z,2.60
2018-04-17T19:42:36.915Z,2.70
2018-04-17T19:45:03.329Z,2.73
2018-04-17T19:47:29.683Z,2.87
2018-04-17T19:49:56.083Z,3.07
2018-04-17T19:52:22.487Z,2.93
2018-04-17T19:54:48.880Z,2.80
2018-04-17T19:57:15.275Z,2.60
2018-04-17T19:59:41.670Z,2.83
2018-04-17T20:02:09.648Z,3.10
2018-04-17T20:04:36.033Z,2.93
2018-04-17T20:07:02.451Z,3.07
2018-04-17T20:09:28.864Z,3.00
2018-04-17T20:11:55.271Z,2.70
2018-04-17T20:14:22.433Z,2.63
2018-04-17T20:16:48.839Z,2.83
2018-04-17T20:19:16.715Z,2.90
2018-04-17T20:21:43.823Z,2.80
2018-04-17T20:24:10.237Z,3.00
2018-04-17T20:26:36.661Z,2.90
2018-04-17T20:29:03.066Z,3.50
2018-04-17T20:31:30.200Z,3.47
2018-04-17T20:33:56.567Z,3.30
2018-04-17T20:36:23.683Z,3.23
2018-04-17T20:38:50.055Z,4.00
2018-04-17T20:41:16.425Z,2.87
2018-04-17T20:43:42.878Z,3.03
2018-04-17T20:46:09.300Z,2.90
2018-04-17T20:48:35.724Z,3.17
2018-04-17T20:51:02.132Z,3.17
2018-04-17T20:53:28.574Z,3.10
2018-04-17T20:55:54.996Z,3.30
2018-04-17T20:58:21.415Z,3.07
2018-04-17T21:00:47.801Z,3.20
2018-04-17T21:03:14.191Z,3.53
2018-04-17T21:05:40.612Z,3.80
2018-04-17T21:08:07.749Z,3.27
2018-04-17T21:10:34.910Z,3.00
2018-04-17T21:13:02.051Z,3.50
2018-04-17T21:15:29.227Z,3.43
2018-04-17T21:17:55.602Z,3.33
2018-04-17T21:20:22.016Z,3.70
2018-04-17T21:22:48.429Z,3.77
2018-04-17T21:25:14.843Z,3.43
2018-04-17T21:27:41.274Z,3.83
2018-04-17T21:30:08.413Z,3.80
2018-04-17T21:32:35.521Z,4.13
2018-04-17T21:35:01.917Z,4.60
2018-04-17T21:37:28.273Z,4.50
2018-04-17T21:39:54.755Z,4.60
2018-04-17T21:42:22.615Z,4.10
2018-04-17T21:44:49.253Z,4.20
2018-04-17T21:47:15.650Z,4.30
2018-04-17T21:49:42.035Z,4.50
2018-04-17T21:52:08.417Z,4.20
2018-04-17T21:54:34.788Z,3.90
2018-04-17T21:57:01.177Z,4.10
2018-04-17T21:59:27.583Z,3.80
2018-04-17T22:01:53.944Z,3.60
2018-04-17T22:04:20.357Z,3.70
2018-04-17T22:06:47.466Z,3.77
2018-04-17T22:09:13.874Z,3.33
2018-04-17T22:11:40.292Z,3.93
2018-04-17T22:14:06.682Z,3.50
2018-04-17T22:16:33.790Z,3.80
2018-04-17T22:19:00.164Z,3.73
2018-04-17T22:21:27.320Z,3.57
2018-04-17T22:23:53.696Z,3.23
2018-04-17T22:26:20.219Z,3.60
2018-04-17T22:28:46.584Z,4.10
2018-04-17T22:31:13.584Z,3.93
2018-04-17T22:33:39.974Z,4.03
2018-04-17T22:36:06.323Z,3.73
2018-04-17T22:38:32.716Z,3.80
2018-04-17T22:40:59.128Z,4.20
2018-04-17T22:43:25.519Z,4.13
2018-04-17T22:45:52.682Z,3.90
2018-04-17T22:48:19.085Z,3.90
2018-04-17T22:50:46.955Z,3.53
2018-04-17T22:53:13.382Z,3.77
2018-04-17T22:55:39.794Z,4.10
2018-04-17T22:58:06.219Z,3.83
2018-04-17T23:00:32.659Z,4.50
2018-04-17T23:02:59.047Z,4.37
2018-04-17T23:05:33.207Z,4.27
2018-04-17T23:07:59.604Z,4.00
2018-04-17T23:10:25.973Z,4.60
2018-04-17T23:12:52.350Z,4.23
2018-04-17T23:15:19.466Z,3.70
2018-04-17T23:17:45.857Z,4.90
2018-04-17T23:20:12.241Z,4.23
2018-04-17T23:22:38.653Z,4.47
2018-04-17T23:25:05.035Z,4.30
2018-04-17T23:27:31.389Z,3.90
2018-04-17T23:29:57.777Z,4.63
2018-04-17T23:32:24.145Z,4.43
2018-04-17T23:34:50.594Z,4.43
2018-04-17T23:37:16.953Z,4.07
2018-04-17T23:39:43.335Z,4.33
2018-04-17T23:42:09.738Z,4.43
2018-04-17T23:44:36.131Z,4.40
2018-04-17T23:47:02.519Z,4.97
2018-04-17T23:49:28.879Z,4.33
2018-04-17T23:51:55.933Z,4.40
2018-04-17T23:54:22.321Z,4.17
2018-04-17T23:56:48.727Z,4.17
2018-04-17T23:59:15.071Z,4.50
